Hastings, Canada
Current Conditions -  °F | °C
As of 3:26 AM on Monday 24 Nov 2014 (Local Time) from CYPQ Reporting Station
Heavy Rain Heavy Rain  
Wind Chill: 42°   Ceiling: 600
Heat Index: 46°   Visibility: 3mi
Dew Point: 45°   Wind: 9mph
Humidity: 93%   Direction: 120°ESE
Pressure: 29.38"   Gusts: 17mph
Location:  44.3°N, 77.95°W
Report Text: CYPQ 240826Z AUTO 12008G15KT 070V130 3SM +RA BR BKN006 OVC013 08/07 A2938 RMK PRESFR PCPN 4.3MM PAST HR SLP952
Loading
Personal Weather Stations






























Interactive Weather Map New forecast layout! Learn more

10-Day Weather Forecast

Advertisements
Track Severe Weather on mobile